Decoded Metar for LCPH (PAPHOS in CYPRUS) (IATA:PFO) | Meteo·Mobile Aviation Weather
aviador You're here:

LCPH Decoded Metar

PAPHOS in CYPRUS
Report Time2019-05-19 18:00:00
UTC Time2019-05-19 18:22:25
Flight Rules vfr VFR
Wind330° at 06 kt
W.Decomp.*RWY 29: 4.9 kt HW 3.5 kt RCW
Visibility9999 m
Phenomena:N/A
Clouds:Few 025 Hf
Expected CloudBase > 800 ft AGL from Temp-Dew spread
CeilingNone
Temp19°C (ISA +4)
Dew Point17°C (88% RH)
QNH1013 hPa
Density Alt758 ft
Elevation26 ft
Report Wrong Elevation
Raw Report
LCPH 191800Z 33006KT 9999 FEW025 19/17 Q1013=

Extra information for LCPH:More info

Metar Taf Metar & Taf Last 4 Metars F.Rules Stats Wind Profile Meteogram Temp Stats Airport Information Weather charts Add Link Nearby VenuesMetar ALERT Operation Metar Decoded Social comments